sensor_id;sensor_type;location;lat;lon;timestamp;P1;durP1;ratioP1;P2;durP2;ratioP2
24401;SDS011;12539;48.808;11.292;2022-10-13T00:01:16;30.25;;;19.80;;
24401;SDS011;12539;48.808;11.292;2022-10-13T00:03:43;36.97;;;22.45;;
24401;SDS011;12539;48.808;11.292;2022-10-13T00:06:13;41.22;;;24.02;;
24401;SDS011;12539;48.808;11.292;2022-10-13T00:08:41;44.47;;;23.00;;
24401;SDS011;12539;48.808;11.292;2022-10-13T00:11:11;53.22;;;23.63;;
24401;SDS011;12539;48.808;11.292;2022-10-13T00:13:40;61.35;;;23.80;;
24401;SDS011;12539;48.808;11.292;2022-10-13T00:16:07;48.08;;;23.17;;
24401;SDS011;12539;48.808;11.292;2022-10-13T00:18:33;45.67;;;21.27;;
24401;SDS011;12539;48.808;11.292;2022-10-13T00:20:59;43.17;;;23.17;;
24401;SDS011;12539;48.808;11.292;2022-10-13T00:23:25;46.88;;;21.00;;
24401;SDS011;12539;48.808;11.292;2022-10-13T00:25:51;34.83;;;18.88;;
24401;SDS011;12539;48.808;11.292;2022-10-13T00:28:17;75.10;;;23.10;;
24401;SDS011;12539;48.808;11.292;2022-10-13T00:30:43;73.88;;;23.65;;
24401;SDS011;12539;48.808;11.292;2022-10-13T00:33:10;87.03;;;23.67;;
24401;SDS011;12539;48.808;11.292;2022-10-13T00:35:40;70.95;;;22.75;;
24401;SDS011;12539;48.808;11.292;2022-10-13T00:40:33;67.40;;;21.73;;
24401;SDS011;12539;48.808;11.292;2022-10-13T00:43:12;74.97;;;23.02;;
24401;SDS011;12539;48.808;11.292;2022-10-13T00:45:46;171.57;;;33.97;;
24401;SDS011;12539;48.808;11.292;2022-10-13T00:48:15;27.27;;;18.45;;
24401;SDS011;12539;48.808;11.292;2022-10-13T00:50:45;57.58;;;21.10;;
24401;SDS011;12539;48.808;11.292;2022-10-13T00:53:11;126.25;;;27.38;;
24401;SDS011;12539;48.808;11.292;2022-10-13T00:55:40;228.85;;;35.50;;
24401;SDS011;12539;48.808;11.292;2022-10-13T00:58:08;87.03;;;24.95;;
24401;SDS011;12539;48.808;11.292;2022-10-13T01:00:36;160.15;;;31.45;;
24401;SDS011;12539;48.808;11.292;2022-10-13T01:03:02;91.15;;;26.52;;
24401;SDS011;12539;48.808;11.292;2022-10-13T01:05:28;176.48;;;33.13;;
24401;SDS011;12539;48.808;11.292;2022-10-13T01:07:55;103.57;;;26.55;;
24401;SDS011;12539;48.808;11.292;2022-10-13T01:15:37;109.70;;;27.33;;
24401;SDS011;12539;48.808;11.292;2022-10-13T01:21:03;142.15;;;31.13;;
24401;SDS011;12539;48.808;11.292;2022-10-13T01:26:34;204.73;;;34.95;;
24401;SDS011;12539;48.808;11.292;2022-10-13T01:35:06;192.52;;;33.72;;
24401;SDS011;12539;48.808;11.292;2022-10-13T01:40:21;100.10;;;29.73;;
24401;SDS011;12539;48.808;11.292;2022-10-13T01:42:56;52.13;;;22.17;;
24401;SDS011;12539;48.808;11.292;2022-10-13T01:45:30;140.18;;;32.15;;
24401;SDS011;12539;48.808;11.292;2022-10-13T01:48:01;116.18;;;27.85;;
24401;SDS011;12539;48.808;11.292;2022-10-13T01:50:28;45.53;;;20.40;;
24401;SDS011;12539;48.808;11.292;2022-10-13T01:52:57;277.50;;;44.55;;
24401;SDS011;12539;48.808;11.292;2022-10-13T01:55:25;149.38;;;29.98;;
24401;SDS011;12539;48.808;11.292;2022-10-13T01:57:52;169.35;;;32.40;;
24401;SDS011;12539;48.808;11.292;2022-10-13T02:00:19;151.77;;;31.95;;
24401;SDS011;12539;48.808;11.292;2022-10-13T02:05:49;69.30;;;22.52;;
24401;SDS011;12539;48.808;11.292;2022-10-13T02:08:30;143.77;;;30.10;;
24401;SDS011;12539;48.808;11.292;2022-10-13T02:11:13;145.82;;;30.35;;
24401;SDS011;12539;48.808;11.292;2022-10-13T02:13:45;85.95;;;26.23;;
24401;SDS011;12539;48.808;11.292;2022-10-13T02:16:31;126.13;;;28.80;;
24401;SDS011;12539;48.808;11.292;2022-10-13T02:18:59;119.90;;;28.73;;
24401;SDS011;12539;48.808;11.292;2022-10-13T02:21:28;172.40;;;33.25;;
24401;SDS011;12539;48.808;11.292;2022-10-13T02:23:55;111.40;;;29.20;;
24401;SDS011;12539;48.808;11.292;2022-10-13T02:26:21;83.63;;;27.00;;
24401;SDS011;12539;48.808;11.292;2022-10-13T02:28:47;238.10;;;37.40;;
24401;SDS011;12539;48.808;11.292;2022-10-13T02:31:13;43.78;;;20.00;;
24401;SDS011;12539;48.808;11.292;2022-10-13T02:33:38;236.73;;;38.38;;
24401;SDS011;12539;48.808;11.292;2022-10-13T02:36:04;110.45;;;27.02;;
24401;SDS011;12539;48.808;11.292;2022-10-13T02:38:30;213.93;;;39.42;;
24401;SDS011;12539;48.808;11.292;2022-10-13T02:40:55;65.63;;;22.20;;
24401;SDS011;12539;48.808;11.292;2022-10-13T02:43:21;177.13;;;33.85;;
24401;SDS011;12539;48.808;11.292;2022-10-13T02:45:47;53.53;;;21.30;;
24401;SDS011;12539;48.808;11.292;2022-10-13T02:48:12;37.88;;;19.73;;
24401;SDS011;12539;48.808;11.292;2022-10-13T02:50:38;137.57;;;30.88;;
24401;SDS011;12539;48.808;11.292;2022-10-13T02:53:04;71.18;;;24.83;;
24401;SDS011;12539;48.808;11.292;2022-10-13T02:55:29;77.05;;;23.95;;
24401;SDS011;12539;48.808;11.292;2022-10-13T02:57:55;61.75;;;25.50;;
24401;SDS011;12539;48.808;11.292;2022-10-13T03:00:21;122.50;;;28.33;;
24401;SDS011;12539;48.808;11.292;2022-10-13T03:02:46;73.10;;;24.30;;
24401;SDS011;12539;48.808;11.292;2022-10-13T03:05:12;63.03;;;22.63;;
24401;SDS011;12539;48.808;11.292;2022-10-13T03:07:38;54.15;;;22.52;;
24401;SDS011;12539;48.808;11.292;2022-10-13T03:10:04;80.75;;;23.85;;
24401;SDS011;12539;48.808;11.292;2022-10-13T03:12:30;64.50;;;21.45;;
24401;SDS011;12539;48.808;11.292;2022-10-13T03:14:56;41.63;;;18.33;;
24401;SDS011;12539;48.808;11.292;2022-10-13T03:17:21;145.05;;;28.42;;
24401;SDS011;12539;48.808;11.292;2022-10-13T03:19:47;42.90;;;19.15;;
24401;SDS011;12539;48.808;11.292;2022-10-13T03:22:12;176.10;;;30.45;;
24401;SDS011;12539;48.808;11.292;2022-10-13T03:24:39;34.72;;;17.35;;
24401;SDS011;12539;48.808;11.292;2022-10-13T03:27:05;135.10;;;27.77;;
24401;SDS011;12539;48.808;11.292;2022-10-13T03:29:31;53.17;;;19.98;;
24401;SDS011;12539;48.808;11.292;2022-10-13T03:31:57;129.65;;;26.60;;
24401;SDS011;12539;48.808;11.292;2022-10-13T03:34:23;72.13;;;22.50;;
24401;SDS011;12539;48.808;11.292;2022-10-13T03:36:49;63.15;;;22.27;;
24401;SDS011;12539;48.808;11.292;2022-10-13T03:39:15;91.57;;;24.13;;
24401;SDS011;12539;48.808;11.292;2022-10-13T03:41:40;74.78;;;21.80;;
24401;SDS011;12539;48.808;11.292;2022-10-13T03:44:08;63.40;;;21.38;;
24401;SDS011;12539;48.808;11.292;2022-10-13T03:46:36;51.97;;;19.55;;
24401;SDS011;12539;48.808;11.292;2022-10-13T03:49:01;58.85;;;20.88;;
24401;SDS011;12539;48.808;11.292;2022-10-13T03:51:27;72.35;;;20.48;;
24401;SDS011;12539;48.808;11.292;2022-10-13T03:53:53;80.03;;;22.85;;
24401;SDS011;12539;48.808;11.292;2022-10-13T03:56:20;117.80;;;25.23;;
24401;SDS011;12539;48.808;11.292;2022-10-13T03:58:48;24.70;;;16.25;;
24401;SDS011;12539;48.808;11.292;2022-10-13T04:01:18;126.05;;;28.50;;
24401;SDS011;12539;48.808;11.292;2022-10-13T04:03:48;48.58;;;17.17;;
24401;SDS011;12539;48.808;11.292;2022-10-13T04:06:16;151.20;;;25.50;;
24401;SDS011;12539;48.808;11.292;2022-10-13T04:08:41;111.70;;;23.83;;
24401;SDS011;12539;48.808;11.292;2022-10-13T04:11:09;35.60;;;16.20;;
24401;SDS011;12539;48.808;11.292;2022-10-13T04:13:36;53.67;;;18.33;;
24401;SDS011;12539;48.808;11.292;2022-10-13T04:16:03;110.85;;;22.55;;
24401;SDS011;12539;48.808;11.292;2022-10-13T04:20:59;31.10;;;16.02;;
24401;SDS011;12539;48.808;11.292;2022-10-13T04:23:25;129.00;;;28.42;;
24401;SDS011;12539;48.808;11.292;2022-10-13T04:25:51;26.88;;;16.55;;
24401;SDS011;12539;48.808;11.292;2022-10-13T04:28:16;64.20;;;23.90;;
24401;SDS011;12539;48.808;11.292;2022-10-13T04:30:42;30.67;;;16.38;;
24401;SDS011;12539;48.808;11.292;2022-10-13T04:33:08;45.60;;;16.15;;
24401;SDS011;12539;48.808;11.292;2022-10-13T04:35:38;40.97;;;18.08;;
24401;SDS011;12539;48.808;11.292;2022-10-13T04:38:05;35.03;;;14.93;;
24401;SDS011;12539;48.808;11.292;2022-10-13T04:40:31;62.10;;;18.50;;
24401;SDS011;12539;48.808;11.292;2022-10-13T04:42:57;38.38;;;17.70;;
24401;SDS011;12539;48.808;11.292;2022-10-13T04:45:23;64.47;;;20.52;;
24401;SDS011;12539;48.808;11.292;2022-10-13T04:47:49;50.42;;;17.95;;
24401;SDS011;12539;48.808;11.292;2022-10-13T04:50:14;39.05;;;16.02;;
24401;SDS011;12539;48.808;11.292;2022-10-13T04:52:40;33.10;;;17.02;;
24401;SDS011;12539;48.808;11.292;2022-10-13T04:55:06;29.13;;;17.02;;
24401;SDS011;12539;48.808;11.292;2022-10-13T04:57:33;21.30;;;14.88;;
24401;SDS011;12539;48.808;11.292;2022-10-13T04:59:59;76.53;;;20.92;;
24401;SDS011;12539;48.808;11.292;2022-10-13T05:02:24;48.85;;;21.08;;
24401;SDS011;12539;48.808;11.292;2022-10-13T05:04:50;156.75;;;35.08;;
24401;SDS011;12539;48.808;11.292;2022-10-13T05:07:15;81.32;;;30.92;;
24401;SDS011;12539;48.808;11.292;2022-10-13T05:09:41;149.38;;;34.70;;
24401;SDS011;12539;48.808;11.292;2022-10-13T05:12:07;131.73;;;33.13;;
24401;SDS011;12539;48.808;11.292;2022-10-13T05:14:33;137.27;;;31.88;;
24401;SDS011;12539;48.808;11.292;2022-10-13T05:16:59;133.05;;;35.00;;
24401;SDS011;12539;48.808;11.292;2022-10-13T05:19:26;109.40;;;38.60;;
24401;SDS011;12539;48.808;11.292;2022-10-13T05:21:52;162.68;;;42.85;;
24401;SDS011;12539;48.808;11.292;2022-10-13T05:24:17;213.52;;;43.60;;
24401;SDS011;12539;48.808;11.292;2022-10-13T05:26:54;87.28;;;34.38;;
24401;SDS011;12539;48.808;11.292;2022-10-13T05:29:20;243.27;;;41.85;;
24401;SDS011;12539;48.808;11.292;2022-10-13T05:31:46;144.93;;;38.42;;
24401;SDS011;12539;48.808;11.292;2022-10-13T05:34:12;87.60;;;34.55;;
24401;SDS011;12539;48.808;11.292;2022-10-13T05:36:38;112.53;;;37.33;;
24401;SDS011;12539;48.808;11.292;2022-10-13T05:39:04;158.75;;;40.88;;
24401;SDS011;12539;48.808;11.292;2022-10-13T05:41:31;140.30;;;39.03;;
24401;SDS011;12539;48.808;11.292;2022-10-13T05:43:59;88.20;;;32.72;;
24401;SDS011;12539;48.808;11.292;2022-10-13T05:46:27;112.20;;;34.33;;
24401;SDS011;12539;48.808;11.292;2022-10-13T05:48:53;92.88;;;33.97;;
24401;SDS011;12539;48.808;11.292;2022-10-13T05:51:53;82.25;;;28.83;;
24401;SDS011;12539;48.808;11.292;2022-10-13T05:54:15;117.90;;;31.38;;
24401;SDS011;12539;48.808;11.292;2022-10-13T05:56:45;48.35;;;24.98;;
24401;SDS011;12539;48.808;11.292;2022-10-13T05:59:20;33.92;;;20.33;;
24401;SDS011;12539;48.808;11.292;2022-10-13T06:01:49;55.25;;;21.75;;
24401;SDS011;12539;48.808;11.292;2022-10-13T06:04:19;48.28;;;20.98;;
24401;SDS011;12539;48.808;11.292;2022-10-13T06:06:48;49.03;;;21.60;;
24401;SDS011;12539;48.808;11.292;2022-10-13T06:09:15;39.53;;;20.00;;
24401;SDS011;12539;48.808;11.292;2022-10-13T06:11:41;69.13;;;24.30;;
24401;SDS011;12539;48.808;11.292;2022-10-13T06:14:07;46.15;;;20.45;;
24401;SDS011;12539;48.808;11.292;2022-10-13T06:16:35;38.08;;;19.98;;
24401;SDS011;12539;48.808;11.292;2022-10-13T06:19:02;31.73;;;19.20;;
24401;SDS011;12539;48.808;11.292;2022-10-13T06:21:29;45.88;;;20.60;;
24401;SDS011;12539;48.808;11.292;2022-10-13T06:23:54;30.77;;;18.40;;
24401;SDS011;12539;48.808;11.292;2022-10-13T06:26:20;49.47;;;20.80;;
24401;SDS011;12539;48.808;11.292;2022-10-13T06:28:46;27.42;;;17.52;;
24401;SDS011;12539;48.808;11.292;2022-10-13T06:31:12;43.92;;;19.85;;
24401;SDS011;12539;48.808;11.292;2022-10-13T06:33:38;33.83;;;18.52;;
24401;SDS011;12539;48.808;11.292;2022-10-13T06:36:04;32.00;;;17.67;;
24401;SDS011;12539;48.808;11.292;2022-10-13T06:38:30;38.90;;;20.40;;
24401;SDS011;12539;48.808;11.292;2022-10-13T06:41:00;56.20;;;21.83;;
24401;SDS011;12539;48.808;11.292;2022-10-13T06:43:27;35.95;;;19.58;;
24401;SDS011;12539;48.808;11.292;2022-10-13T06:45:56;37.33;;;18.52;;
24401;SDS011;12539;48.808;11.292;2022-10-13T06:48:22;31.40;;;17.38;;
24401;SDS011;12539;48.808;11.292;2022-10-13T06:50:48;24.02;;;15.93;;
24401;SDS011;12539;48.808;11.292;2022-10-13T06:53:13;30.92;;;16.90;;
24401;SDS011;12539;48.808;11.292;2022-10-13T06:55:39;38.83;;;19.60;;
24401;SDS011;12539;48.808;11.292;2022-10-13T06:58:07;39.70;;;18.77;;
24401;SDS011;12539;48.808;11.292;2022-10-13T07:00:34;30.77;;;17.40;;
24401;SDS011;12539;48.808;11.292;2022-10-13T07:03:00;37.53;;;19.02;;
24401;SDS011;12539;48.808;11.292;2022-10-13T07:05:26;29.52;;;16.92;;
24401;SDS011;12539;48.808;11.292;2022-10-13T07:07:52;31.67;;;17.13;;
24401;SDS011;12539;48.808;11.292;2022-10-13T07:10:20;30.33;;;17.33;;
24401;SDS011;12539;48.808;11.292;2022-10-13T07:12:46;35.55;;;18.17;;
24401;SDS011;12539;48.808;11.292;2022-10-13T07:15:12;55.53;;;21.58;;
24401;SDS011;12539;48.808;11.292;2022-10-13T07:17:37;40.67;;;18.98;;
24401;SDS011;12539;48.808;11.292;2022-10-13T07:20:03;40.35;;;18.83;;
24401;SDS011;12539;48.808;11.292;2022-10-13T07:22:29;57.25;;;22.70;;
24401;SDS011;12539;48.808;11.292;2022-10-13T07:24:55;30.42;;;16.70;;
24401;SDS011;12539;48.808;11.292;2022-10-13T07:27:21;27.92;;;15.77;;
24401;SDS011;12539;48.808;11.292;2022-10-13T07:29:47;34.88;;;18.40;;
24401;SDS011;12539;48.808;11.292;2022-10-13T07:32:12;27.00;;;16.02;;
24401;SDS011;12539;48.808;11.292;2022-10-13T07:34:38;32.92;;;16.02;;
24401;SDS011;12539;48.808;11.292;2022-10-13T07:37:04;36.97;;;18.33;;
24401;SDS011;12539;48.808;11.292;2022-10-13T07:39:29;34.08;;;17.52;;
24401;SDS011;12539;48.808;11.292;2022-10-13T07:41:55;34.53;;;17.67;;
24401;SDS011;12539;48.808;11.292;2022-10-13T07:44:21;37.33;;;17.77;;
24401;SDS011;12539;48.808;11.292;2022-10-13T07:46:47;29.80;;;17.50;;
24401;SDS011;12539;48.808;11.292;2022-10-13T07:49:12;37.95;;;18.50;;
24401;SDS011;12539;48.808;11.292;2022-10-13T07:51:38;38.28;;;20.70;;
24401;SDS011;12539;48.808;11.292;2022-10-13T07:54:04;22.98;;;14.50;;
24401;SDS011;12539;48.808;11.292;2022-10-13T07:56:30;25.40;;;15.25;;
24401;SDS011;12539;48.808;11.292;2022-10-13T07:58:55;35.42;;;17.83;;
24401;SDS011;12539;48.808;11.292;2022-10-13T08:01:21;40.47;;;20.52;;
24401;SDS011;12539;48.808;11.292;2022-10-13T08:03:47;28.35;;;17.58;;
24401;SDS011;12539;48.808;11.292;2022-10-13T08:06:12;45.08;;;20.15;;
24401;SDS011;12539;48.808;11.292;2022-10-13T08:08:38;37.88;;;19.60;;
24401;SDS011;12539;48.808;11.292;2022-10-13T08:11:05;36.40;;;18.92;;
24401;SDS011;12539;48.808;11.292;2022-10-13T08:13:33;36.53;;;18.17;;
24401;SDS011;12539;48.808;11.292;2022-10-13T08:15:59;39.22;;;21.30;;
24401;SDS011;12539;48.808;11.292;2022-10-13T08:18:26;41.53;;;21.25;;
24401;SDS011;12539;48.808;11.292;2022-10-13T08:20:52;32.35;;;19.20;;
24401;SDS011;12539;48.808;11.292;2022-10-13T08:23:18;31.00;;;17.20;;
24401;SDS011;12539;48.808;11.292;2022-10-13T08:25:44;28.33;;;16.65;;
24401;SDS011;12539;48.808;11.292;2022-10-13T08:28:17;29.17;;;17.60;;
24401;SDS011;12539;48.808;11.292;2022-10-13T08:30:52;34.42;;;18.33;;
24401;SDS011;12539;48.808;11.292;2022-10-13T08:33:21;25.00;;;15.23;;
24401;SDS011;12539;48.808;11.292;2022-10-13T08:35:47;41.83;;;24.13;;
24401;SDS011;12539;48.808;11.292;2022-10-13T08:38:12;35.00;;;19.55;;
24401;SDS011;12539;48.808;11.292;2022-10-13T08:40:38;42.05;;;19.90;;
24401;SDS011;12539;48.808;11.292;2022-10-13T08:43:07;26.90;;;15.98;;
24401;SDS011;12539;48.808;11.292;2022-10-13T08:45:37;40.97;;;21.08;;
24401;SDS011;12539;48.808;11.292;2022-10-13T08:48:08;28.35;;;17.75;;
24401;SDS011;12539;48.808;11.292;2022-10-13T08:50:50;32.80;;;18.35;;
24401;SDS011;12539;48.808;11.292;2022-10-13T08:55:56;33.70;;;18.83;;
24401;SDS011;12539;48.808;11.292;2022-10-13T08:58:44;47.78;;;25.58;;
24401;SDS011;12539;48.808;11.292;2022-10-13T09:01:13;25.83;;;16.23;;
24401;SDS011;12539;48.808;11.292;2022-10-13T09:06:23;22.92;;;14.77;;
24401;SDS011;12539;48.808;11.292;2022-10-13T09:11:25;25.27;;;14.90;;
24401;SDS011;12539;48.808;11.292;2022-10-13T09:13:57;23.88;;;15.13;;
24401;SDS011;12539;48.808;11.292;2022-10-13T09:16:25;22.98;;;15.55;;
24401;SDS011;12539;48.808;11.292;2022-10-13T09:18:52;22.67;;;15.40;;
24401;SDS011;12539;48.808;11.292;2022-10-13T09:21:20;23.38;;;15.88;;
24401;SDS011;12539;48.808;11.292;2022-10-13T09:23:48;23.48;;;14.80;;
24401;SDS011;12539;48.808;11.292;2022-10-13T09:26:17;21.67;;;15.35;;
24401;SDS011;12539;48.808;11.292;2022-10-13T09:28:48;19.13;;;12.95;;
24401;SDS011;12539;48.808;11.292;2022-10-13T09:33:55;19.02;;;14.23;;
24401;SDS011;12539;48.808;11.292;2022-10-13T09:36:25;21.25;;;13.90;;
24401;SDS011;12539;48.808;11.292;2022-10-13T09:39:05;20.30;;;13.88;;
24401;SDS011;12539;48.808;11.292;2022-10-13T09:41:40;18.23;;;13.68;;
24401;SDS011;12539;48.808;11.292;2022-10-13T09:46:54;18.27;;;13.23;;
24401;SDS011;12539;48.808;11.292;2022-10-13T09:52:22;18.73;;;13.48;;
24401;SDS011;12539;48.808;11.292;2022-10-13T09:54:50;21.88;;;14.20;;
24401;SDS011;12539;48.808;11.292;2022-10-13T10:07:44;19.10;;;12.32;;
24401;SDS011;12539;48.808;11.292;2022-10-13T10:10:22;17.75;;;12.77;;
24401;SDS011;12539;48.808;11.292;2022-10-13T10:12:52;18.75;;;13.95;;
24401;SDS011;12539;48.808;11.292;2022-10-13T10:15:26;19.17;;;12.48;;
24401;SDS011;12539;48.808;11.292;2022-10-13T10:18:02;16.65;;;12.57;;
24401;SDS011;12539;48.808;11.292;2022-10-13T10:25:58;20.85;;;12.48;;
24401;SDS011;12539;48.808;11.292;2022-10-13T10:31:29;15.75;;;11.18;;
24401;SDS011;12539;48.808;11.292;2022-10-13T10:34:23;13.77;;;11.18;;
24401;SDS011;12539;48.808;11.292;2022-10-13T10:44:54;13.90;;;10.98;;
24401;SDS011;12539;48.808;11.292;2022-10-13T10:47:26;16.75;;;13.48;;
24401;SDS011;12539;48.808;11.292;2022-10-13T10:50:02;18.25;;;13.82;;
24401;SDS011;12539;48.808;11.292;2022-10-13T10:52:34;15.48;;;12.40;;
24401;SDS011;12539;48.808;11.292;2022-10-13T11:01:06;16.13;;;12.77;;
24401;SDS011;12539;48.808;11.292;2022-10-13T11:06:36;19.15;;;14.60;;
24401;SDS011;12539;48.808;11.292;2022-10-13T11:09:03;16.95;;;12.63;;
24401;SDS011;12539;48.808;11.292;2022-10-13T11:11:31;15.85;;;10.82;;
24401;SDS011;12539;48.808;11.292;2022-10-13T11:14:18;17.85;;;12.52;;
24401;SDS011;12539;48.808;11.292;2022-10-13T11:17:52;23.65;;;16.58;;
24401;SDS011;12539;48.808;11.292;2022-10-13T11:22:25;14.20;;;11.57;;
24401;SDS011;12539;48.808;11.292;2022-10-13T11:25:07;15.15;;;11.63;;
24401;SDS011;12539;48.808;11.292;2022-10-13T11:27:53;16.70;;;13.45;;
24401;SDS011;12539;48.808;11.292;2022-10-13T11:38:52;12.90;;;11.02;;
24401;SDS011;12539;48.808;11.292;2022-10-13T11:41:44;12.23;;;10.02;;
24401;SDS011;12539;48.808;11.292;2022-10-13T11:49:53;13.13;;;10.38;;
24401;SDS011;12539;48.808;11.292;2022-10-13T11:53:16;10.65;;;9.02;;
24401;SDS011;12539;48.808;11.292;2022-10-13T11:55:49;20.55;;;16.23;;
24401;SDS011;12539;48.808;11.292;2022-10-13T12:01:00;15.90;;;13.38;;
24401;SDS011;12539;48.808;11.292;2022-10-13T12:03:27;15.07;;;11.27;;
24401;SDS011;12539;48.808;11.292;2022-10-13T12:06:18;15.55;;;12.63;;
24401;SDS011;12539;48.808;11.292;2022-10-13T12:09:01;18.98;;;12.48;;
24401;SDS011;12539;48.808;11.292;2022-10-13T12:11:39;15.77;;;11.63;;
24401;SDS011;12539;48.808;11.292;2022-10-13T12:14:06;14.48;;;11.50;;
24401;SDS011;12539;48.808;11.292;2022-10-13T12:16:52;14.70;;;10.27;;
24401;SDS011;12539;48.808;11.292;2022-10-13T12:19:23;15.25;;;12.73;;
24401;SDS011;12539;48.808;11.292;2022-10-13T12:21:52;18.23;;;13.50;;
24401;SDS011;12539;48.808;11.292;2022-10-13T12:24:22;17.85;;;13.32;;
24401;SDS011;12539;48.808;11.292;2022-10-13T12:26:50;16.10;;;10.80;;
24401;SDS011;12539;48.808;11.292;2022-10-13T12:29:17;18.35;;;12.93;;
24401;SDS011;12539;48.808;11.292;2022-10-13T12:31:47;17.88;;;13.80;;
24401;SDS011;12539;48.808;11.292;2022-10-13T12:34:27;14.35;;;11.48;;
24401;SDS011;12539;48.808;11.292;2022-10-13T12:39:57;18.08;;;10.95;;
24401;SDS011;12539;48.808;11.292;2022-10-13T12:42:26;14.70;;;10.88;;
24401;SDS011;12539;48.808;11.292;2022-10-13T12:44:57;12.02;;;9.88;;
24401;SDS011;12539;48.808;11.292;2022-10-13T12:55:32;12.95;;;9.80;;
24401;SDS011;12539;48.808;11.292;2022-10-13T12:58:00;17.73;;;10.65;;
24401;SDS011;12539;48.808;11.292;2022-10-13T13:00:27;14.77;;;11.57;;
24401;SDS011;12539;48.808;11.292;2022-10-13T13:02:55;15.02;;;10.77;;
24401;SDS011;12539;48.808;11.292;2022-10-13T13:07:55;12.15;;;9.93;;
24401;SDS011;12539;48.808;11.292;2022-10-13T13:10:21;12.32;;;9.90;;
24401;SDS011;12539;48.808;11.292;2022-10-13T13:12:48;10.52;;;8.10;;
24401;SDS011;12539;48.808;11.292;2022-10-13T13:17:50;13.63;;;10.18;;
24401;SDS011;12539;48.808;11.292;2022-10-13T13:20:17;20.13;;;16.25;;
24401;SDS011;12539;48.808;11.292;2022-10-13T13:22:43;15.98;;;12.48;;
24401;SDS011;12539;48.808;11.292;2022-10-13T13:25:09;17.70;;;12.35;;
24401;SDS011;12539;48.808;11.292;2022-10-13T13:27:36;13.77;;;10.10;;
24401;SDS011;12539;48.808;11.292;2022-10-13T13:30:05;15.40;;;11.80;;
24401;SDS011;12539;48.808;11.292;2022-10-13T13:32:38;16.55;;;12.90;;
24401;SDS011;12539;48.808;11.292;2022-10-13T13:35:04;14.23;;;10.45;;
24401;SDS011;12539;48.808;11.292;2022-10-13T13:37:37;12.07;;;9.73;;
24401;SDS011;12539;48.808;11.292;2022-10-13T13:40:05;9.27;;;8.27;;
24401;SDS011;12539;48.808;11.292;2022-10-13T13:42:37;17.85;;;13.27;;
24401;SDS011;12539;48.808;11.292;2022-10-13T13:45:03;14.13;;;10.88;;
24401;SDS011;12539;48.808;11.292;2022-10-13T13:47:29;10.10;;;7.40;;
24401;SDS011;12539;48.808;11.292;2022-10-13T13:49:55;13.30;;;8.35;;
24401;SDS011;12539;48.808;11.292;2022-10-13T13:52:22;11.07;;;8.18;;
24401;SDS011;12539;48.808;11.292;2022-10-13T13:54:48;11.52;;;8.20;;
24401;SDS011;12539;48.808;11.292;2022-10-13T13:57:15;9.10;;;7.13;;
24401;SDS011;12539;48.808;11.292;2022-10-13T13:59:41;11.75;;;8.95;;
24401;SDS011;12539;48.808;11.292;2022-10-13T14:02:15;11.23;;;8.60;;
24401;SDS011;12539;48.808;11.292;2022-10-13T14:04:43;11.45;;;8.20;;
24401;SDS011;12539;48.808;11.292;2022-10-13T14:07:09;12.70;;;10.07;;
24401;SDS011;12539;48.808;11.292;2022-10-13T14:09:34;16.52;;;11.75;;
24401;SDS011;12539;48.808;11.292;2022-10-13T14:12:00;18.25;;;12.35;;
24401;SDS011;12539;48.808;11.292;2022-10-13T14:14:28;13.90;;;9.82;;
24401;SDS011;12539;48.808;11.292;2022-10-13T14:16:55;18.25;;;11.40;;
24401;SDS011;12539;48.808;11.292;2022-10-13T14:19:21;12.85;;;9.75;;
24401;SDS011;12539;48.808;11.292;2022-10-13T14:21:47;13.60;;;10.25;;
24401;SDS011;12539;48.808;11.292;2022-10-13T14:24:13;13.60;;;10.05;;
24401;SDS011;12539;48.808;11.292;2022-10-13T14:26:38;12.57;;;10.02;;
24401;SDS011;12539;48.808;11.292;2022-10-13T14:29:04;17.67;;;12.98;;
24401;SDS011;12539;48.808;11.292;2022-10-13T14:31:31;10.32;;;8.32;;
24401;SDS011;12539;48.808;11.292;2022-10-13T14:34:02;19.83;;;11.80;;
24401;SDS011;12539;48.808;11.292;2022-10-13T14:36:28;10.27;;;7.78;;
24401;SDS011;12539;48.808;11.292;2022-10-13T14:38:54;15.57;;;12.13;;
24401;SDS011;12539;48.808;11.292;2022-10-13T14:41:20;10.35;;;8.63;;
24401;SDS011;12539;48.808;11.292;2022-10-13T14:43:46;12.65;;;9.55;;
24401;SDS011;12539;48.808;11.292;2022-10-13T14:46:12;10.25;;;8.25;;
24401;SDS011;12539;48.808;11.292;2022-10-13T14:48:38;10.93;;;8.55;;
24401;SDS011;12539;48.808;11.292;2022-10-13T14:51:07;11.57;;;9.30;;
24401;SDS011;12539;48.808;11.292;2022-10-13T14:53:35;15.98;;;10.43;;
24401;SDS011;12539;48.808;11.292;2022-10-13T14:56:10;12.27;;;8.80;;
24401;SDS011;12539;48.808;11.292;2022-10-13T14:58:46;17.85;;;13.80;;
24401;SDS011;12539;48.808;11.292;2022-10-13T15:01:12;22.50;;;11.48;;
24401;SDS011;12539;48.808;11.292;2022-10-13T15:03:38;18.77;;;13.38;;
24401;SDS011;12539;48.808;11.292;2022-10-13T15:06:04;9.52;;;7.90;;
24401;SDS011;12539;48.808;11.292;2022-10-13T15:08:31;13.82;;;9.07;;
24401;SDS011;12539;48.808;11.292;2022-10-13T15:11:00;12.00;;;8.88;;
24401;SDS011;12539;48.808;11.292;2022-10-13T15:13:26;10.95;;;9.40;;
24401;SDS011;12539;48.808;11.292;2022-10-13T15:15:52;10.63;;;8.75;;
24401;SDS011;12539;48.808;11.292;2022-10-13T15:18:17;19.15;;;12.80;;
24401;SDS011;12539;48.808;11.292;2022-10-13T15:20:44;21.80;;;14.13;;
24401;SDS011;12539;48.808;11.292;2022-10-13T15:23:13;12.00;;;9.40;;
24401;SDS011;12539;48.808;11.292;2022-10-13T15:25:40;14.65;;;11.98;;
24401;SDS011;12539;48.808;11.292;2022-10-13T15:28:18;19.17;;;14.82;;
24401;SDS011;12539;48.808;11.292;2022-10-13T15:30:44;17.98;;;11.98;;
24401;SDS011;12539;48.808;11.292;2022-10-13T15:33:10;11.90;;;8.60;;
24401;SDS011;12539;48.808;11.292;2022-10-13T15:35:36;9.73;;;7.75;;
24401;SDS011;12539;48.808;11.292;2022-10-13T15:38:01;14.43;;;9.68;;
24401;SDS011;12539;48.808;11.292;2022-10-13T15:40:27;14.85;;;10.95;;
24401;SDS011;12539;48.808;11.292;2022-10-13T15:42:52;15.30;;;11.75;;
24401;SDS011;12539;48.808;11.292;2022-10-13T15:45:18;19.65;;;14.82;;
24401;SDS011;12539;48.808;11.292;2022-10-13T15:47:44;20.52;;;14.27;;
24401;SDS011;12539;48.808;11.292;2022-10-13T15:50:09;16.77;;;11.48;;
24401;SDS011;12539;48.808;11.292;2022-10-13T15:52:38;16.55;;;12.88;;
24401;SDS011;12539;48.808;11.292;2022-10-13T15:55:05;34.83;;;22.20;;
24401;SDS011;12539;48.808;11.292;2022-10-13T15:57:32;23.98;;;16.55;;
24401;SDS011;12539;48.808;11.292;2022-10-13T15:59:58;52.33;;;33.95;;
24401;SDS011;12539;48.808;11.292;2022-10-13T16:02:23;38.65;;;25.52;;
24401;SDS011;12539;48.808;11.292;2022-10-13T16:04:49;29.27;;;20.58;;
24401;SDS011;12539;48.808;11.292;2022-10-13T16:07:15;22.73;;;14.30;;
24401;SDS011;12539;48.808;11.292;2022-10-13T16:09:42;17.17;;;13.32;;
24401;SDS011;12539;48.808;11.292;2022-10-13T16:12:08;21.17;;;16.23;;